<?xml version='1.0' encoding='UTF-8'?>
<gpx xmlns="http://www.topografix.com/GPX/1/1" creator="www.balnam.be" version="1.1" xmlns:xsi="http://www.w3.org/2001/XMLSchema-instance" xsi:schemaLocation="http://www.topografix.com/GPX/1/1 http://www.topografix.com/GPX/1/1/gpx.xsd">
<trk>
<name>bwvlm17</name>
<cmt>v</cmt>
<desc>Limal Chemin n°17 Chemin Fontaine del Turc / Rue Morimont / sentier de la ferme des morts / Chemin du Pirroy / Chemin des Crisnaires</desc>
<link href="https://chemins.be/limal/chemin/17"/><trkseg>
<trkpt lat="50.689787" lon="4.589211"><time>2026-05-08T05:08:46Z</time></trkpt>
<trkpt lat="50.689751" lon="4.589338"><time>2026-05-08T05:18:46Z</time></trkpt>
<trkpt lat="50.689642" lon="4.589578"><time>2026-05-08T05:28:46Z</time></trkpt>
<trkpt lat="50.689516" lon="4.589946"><time>2026-05-08T05:38:46Z</time></trkpt>
<trkpt lat="50.689668" lon="4.590428"><time>2026-05-08T05:48:46Z</time></trkpt>
<trkpt lat="50.689712" lon="4.590598"><time>2026-05-08T05:58:46Z</time></trkpt>
<trkpt lat="50.689721" lon="4.590739"><time>2026-05-08T06:08:46Z</time></trkpt>
<trkpt lat="50.689747" lon="4.591504"><time>2026-05-08T06:18:46Z</time></trkpt>
<trkpt lat="50.689746" lon="4.591985"><time>2026-05-08T06:28:46Z</time></trkpt>
<trkpt lat="50.689763" lon="4.592197"><time>2026-05-08T06:38:46Z</time></trkpt>
<trkpt lat="50.689799" lon="4.592311"><time>2026-05-08T06:48:46Z</time></trkpt>
<trkpt lat="50.689960" lon="4.592594"><time>2026-05-08T06:58:46Z</time></trkpt>
<trkpt lat="50.690014" lon="4.592680"><time>2026-05-08T07:08:46Z</time></trkpt>
<trkpt lat="50.690830" lon="4.593518"><time>2026-05-08T07:18:46Z</time></trkpt>
<trkpt lat="50.690515" lon="4.594373"><time>2026-05-08T07:28:46Z</time></trkpt>
</trkseg></trk>
<trk>
<name>bwvlm17</name>
<cmt>r</cmt>
<desc>Limal Chemin n°17 Chemin Fontaine del Turc / Rue Morimont / sentier de la ferme des morts / Chemin du Pirroy / Chemin des Crisnaires</desc>
<link href="https://chemins.be/limal/chemin/17"/><trkseg>
<trkpt lat="50.690515" lon="4.594373"><time>2026-05-08T07:28:46Z</time></trkpt>
<trkpt lat="50.691218" lon="4.593237"><time>2026-05-08T07:38:46Z</time></trkpt>
<trkpt lat="50.692647" lon="4.593187"><time>2026-05-08T07:48:46Z</time></trkpt>
<trkpt lat="50.693941" lon="4.593307"><time>2026-05-08T07:58:46Z</time></trkpt>
<trkpt lat="50.694210" lon="4.593959"><time>2026-05-08T08:08:46Z</time></trkpt>
<trkpt lat="50.694614" lon="4.594202"><time>2026-05-08T08:18:46Z</time></trkpt>
</trkseg></trk>
<trk>
<name>bwvlm17</name>
<cmt>v</cmt>
<desc>Limal Chemin n°17 Chemin Fontaine del Turc / Rue Morimont / sentier de la ferme des morts / Chemin du Pirroy / Chemin des Crisnaires</desc>
<link href="https://chemins.be/limal/chemin/17"/><trkseg>
<trkpt lat="50.694614" lon="4.594202"><time>2026-05-08T08:18:46Z</time></trkpt>
<trkpt lat="50.695466" lon="4.595253"><time>2026-05-08T08:28:46Z</time></trkpt>
<trkpt lat="50.695996" lon="4.595581"><time>2026-05-08T08:38:46Z</time></trkpt>
<trkpt lat="50.696964" lon="4.597086"><time>2026-05-08T08:48:46Z</time></trkpt>
<trkpt lat="50.697223" lon="4.597993"><time>2026-05-08T08:58:46Z</time></trkpt>
<trkpt lat="50.697328" lon="4.599225"><time>2026-05-08T09:08:46Z</time></trkpt>
<trkpt lat="50.697389" lon="4.600018"><time>2026-05-08T09:18:46Z</time></trkpt>
<trkpt lat="50.697235" lon="4.600570"><time>2026-05-08T09:28:46Z</time></trkpt>
<trkpt lat="50.697675" lon="4.601152"><time>2026-05-08T09:38:46Z</time></trkpt>
<trkpt lat="50.698106" lon="4.601466"><time>2026-05-08T09:48:46Z</time></trkpt>
</trkseg>
</trk>
</gpx>